sensor_id;sensor_type;location;lat;lon;timestamp;P1;durP1;ratioP1;P2;durP2;ratioP2
70416;SDS011;57839;51.332;12.410;2023-01-04T00:01:11;9.98;;;5.43;;
70416;SDS011;57839;51.332;12.410;2023-01-04T00:03:39;9.30;;;5.63;;
70416;SDS011;57839;51.332;12.410;2023-01-04T00:06:06;7.25;;;5.28;;
70416;SDS011;57839;51.332;12.410;2023-01-04T00:08:33;10.05;;;5.18;;
70416;SDS011;57839;51.332;12.410;2023-01-04T00:10:59;7.85;;;5.22;;
70416;SDS011;57839;51.332;12.410;2023-01-04T00:13:29;7.57;;;5.60;;
70416;SDS011;57839;51.332;12.410;2023-01-04T00:15:55;8.10;;;5.78;;
70416;SDS011;57839;51.332;12.410;2023-01-04T00:18:21;8.95;;;5.40;;
70416;SDS011;57839;51.332;12.410;2023-01-04T00:20:46;7.45;;;5.78;;
70416;SDS011;57839;51.332;12.410;2023-01-04T00:23:12;7.43;;;5.18;;
70416;SDS011;57839;51.332;12.410;2023-01-04T00:25:38;8.77;;;5.90;;
70416;SDS011;57839;51.332;12.410;2023-01-04T00:28:04;7.22;;;6.05;;
70416;SDS011;57839;51.332;12.410;2023-01-04T00:30:29;8.27;;;5.57;;
70416;SDS011;57839;51.332;12.410;2023-01-04T00:32:58;8.32;;;5.70;;
70416;SDS011;57839;51.332;12.410;2023-01-04T00:35:24;7.20;;;5.70;;
70416;SDS011;57839;51.332;12.410;2023-01-04T00:37:49;8.63;;;5.78;;
70416;SDS011;57839;51.332;12.410;2023-01-04T00:40:15;8.98;;;6.00;;
70416;SDS011;57839;51.332;12.410;2023-01-04T00:42:41;11.65;;;5.68;;
70416;SDS011;57839;51.332;12.410;2023-01-04T00:45:07;10.85;;;6.38;;
70416;SDS011;57839;51.332;12.410;2023-01-04T00:47:32;10.55;;;5.90;;
70416;SDS011;57839;51.332;12.410;2023-01-04T00:49:58;7.13;;;5.63;;
70416;SDS011;57839;51.332;12.410;2023-01-04T00:52:24;9.00;;;6.00;;
70416;SDS011;57839;51.332;12.410;2023-01-04T00:54:49;6.90;;;5.50;;
70416;SDS011;57839;51.332;12.410;2023-01-04T00:57:15;9.40;;;5.90;;
70416;SDS011;57839;51.332;12.410;2023-01-04T00:59:41;9.50;;;6.07;;
70416;SDS011;57839;51.332;12.410;2023-01-04T01:02:06;6.55;;;5.90;;
70416;SDS011;57839;51.332;12.410;2023-01-04T01:04:32;8.43;;;5.85;;
70416;SDS011;57839;51.332;12.410;2023-01-04T01:06:57;9.15;;;6.45;;
70416;SDS011;57839;51.332;12.410;2023-01-04T01:09:23;9.40;;;5.82;;
70416;SDS011;57839;51.332;12.410;2023-01-04T01:11:50;7.30;;;6.22;;
70416;SDS011;57839;51.332;12.410;2023-01-04T01:14:17;9.75;;;6.47;;
70416;SDS011;57839;51.332;12.410;2023-01-04T01:16:44;8.90;;;6.53;;
70416;SDS011;57839;51.332;12.410;2023-01-04T01:19:10;7.97;;;6.13;;
70416;SDS011;57839;51.332;12.410;2023-01-04T01:21:36;9.60;;;6.30;;
70416;SDS011;57839;51.332;12.410;2023-01-04T01:24:02;7.72;;;6.10;;
70416;SDS011;57839;51.332;12.410;2023-01-04T01:26:28;11.18;;;6.80;;
70416;SDS011;57839;51.332;12.410;2023-01-04T01:28:53;7.93;;;6.15;;
70416;SDS011;57839;51.332;12.410;2023-01-04T01:31:20;9.52;;;6.35;;
70416;SDS011;57839;51.332;12.410;2023-01-04T01:33:48;7.22;;;6.50;;
70416;SDS011;57839;51.332;12.410;2023-01-04T01:36:16;9.18;;;6.43;;
70416;SDS011;57839;51.332;12.410;2023-01-04T01:38:43;7.57;;;6.15;;
70416;SDS011;57839;51.332;12.410;2023-01-04T01:41:14;9.52;;;6.50;;
70416;SDS011;57839;51.332;12.410;2023-01-04T01:43:53;8.25;;;6.70;;
70416;SDS011;57839;51.332;12.410;2023-01-04T01:49:30;8.63;;;6.53;;
70416;SDS011;57839;51.332;12.410;2023-01-04T01:51:59;9.13;;;6.32;;
70416;SDS011;57839;51.332;12.410;2023-01-04T01:54:33;7.93;;;6.55;;
70416;SDS011;57839;51.332;12.410;2023-01-04T01:57:00;8.98;;;6.70;;
70416;SDS011;57839;51.332;12.410;2023-01-04T01:59:29;10.57;;;6.88;;
70416;SDS011;57839;51.332;12.410;2023-01-04T02:01:56;10.55;;;6.80;;
70416;SDS011;57839;51.332;12.410;2023-01-04T02:04:22;10.25;;;6.90;;
70416;SDS011;57839;51.332;12.410;2023-01-04T02:06:49;9.88;;;6.57;;
70416;SDS011;57839;51.332;12.410;2023-01-04T02:09:17;9.40;;;6.65;;
70416;SDS011;57839;51.332;12.410;2023-01-04T02:11:42;9.48;;;7.05;;
70416;SDS011;57839;51.332;12.410;2023-01-04T02:14:09;10.70;;;6.50;;
70416;SDS011;57839;51.332;12.410;2023-01-04T02:16:59;9.85;;;6.15;;
70416;SDS011;57839;51.332;12.410;2023-01-04T02:19:52;7.55;;;6.10;;
70416;SDS011;57839;51.332;12.410;2023-01-04T02:27:55;6.85;;;5.70;;
70416;SDS011;57839;51.332;12.410;2023-01-04T02:33:09;9.93;;;6.60;;
70416;SDS011;57839;51.332;12.410;2023-01-04T02:38:41;9.05;;;6.20;;
70416;SDS011;57839;51.332;12.410;2023-01-04T02:44:03;10.25;;;6.47;;
70416;SDS011;57839;51.332;12.410;2023-01-04T02:46:57;9.52;;;6.10;;
70416;SDS011;57839;51.332;12.410;2023-01-04T02:49:35;10.88;;;6.03;;
70416;SDS011;57839;51.332;12.410;2023-01-04T02:52:20;7.82;;;6.95;;
70416;SDS011;57839;51.332;12.410;2023-01-04T02:54:47;9.88;;;6.30;;
70416;SDS011;57839;51.332;12.410;2023-01-04T03:05:36;8.15;;;6.00;;
70416;SDS011;57839;51.332;12.410;2023-01-04T03:08:38;8.23;;;5.88;;
70416;SDS011;57839;51.332;12.410;2023-01-04T03:11:11;8.32;;;5.97;;
70416;SDS011;57839;51.332;12.410;2023-01-04T03:13:58;7.38;;;5.65;;
70416;SDS011;57839;51.332;12.410;2023-01-04T03:16:26;10.45;;;5.88;;
70416;SDS011;57839;51.332;12.410;2023-01-04T03:18:54;8.10;;;5.75;;
70416;SDS011;57839;51.332;12.410;2023-01-04T03:21:22;8.05;;;6.15;;
70416;SDS011;57839;51.332;12.410;2023-01-04T03:23:49;7.32;;;6.22;;
70416;SDS011;57839;51.332;12.410;2023-01-04T03:26:37;9.38;;;5.85;;
70416;SDS011;57839;51.332;12.410;2023-01-04T03:29:30;6.55;;;5.88;;
70416;SDS011;57839;51.332;12.410;2023-01-04T03:32:18;7.70;;;5.28;;
70416;SDS011;57839;51.332;12.410;2023-01-04T03:35:05;8.88;;;6.53;;
70416;SDS011;57839;51.332;12.410;2023-01-04T03:37:58;7.38;;;5.97;;
70416;SDS011;57839;51.332;12.410;2023-01-04T03:40:52;7.18;;;5.65;;
70416;SDS011;57839;51.332;12.410;2023-01-04T03:43:41;11.70;;;5.65;;
70416;SDS011;57839;51.332;12.410;2023-01-04T03:46:37;9.93;;;5.53;;
70416;SDS011;57839;51.332;12.410;2023-01-04T03:49:40;9.90;;;6.25;;
70416;SDS011;57839;51.332;12.410;2023-01-04T03:52:22;8.13;;;5.85;;
70416;SDS011;57839;51.332;12.410;2023-01-04T03:54:50;7.53;;;5.72;;
70416;SDS011;57839;51.332;12.410;2023-01-04T03:57:17;10.30;;;5.47;;
70416;SDS011;57839;51.332;12.410;2023-01-04T04:00:28;6.97;;;5.15;;
70416;SDS011;57839;51.332;12.410;2023-01-04T04:02:34;6.72;;;5.15;;
70416;SDS011;57839;51.332;12.410;2023-01-04T04:05:00;10.50;;;5.78;;
70416;SDS011;57839;51.332;12.410;2023-01-04T04:10:28;7.72;;;5.45;;
70416;SDS011;57839;51.332;12.410;2023-01-04T04:12:54;7.80;;;5.68;;
70416;SDS011;57839;51.332;12.410;2023-01-04T04:15:19;11.25;;;5.60;;
70416;SDS011;57839;51.332;12.410;2023-01-04T04:17:45;8.07;;;5.47;;
70416;SDS011;57839;51.332;12.410;2023-01-04T04:20:11;8.60;;;5.57;;
70416;SDS011;57839;51.332;12.410;2023-01-04T04:22:37;7.03;;;5.80;;
70416;SDS011;57839;51.332;12.410;2023-01-04T04:25:03;7.47;;;5.10;;
70416;SDS011;57839;51.332;12.410;2023-01-04T04:27:29;7.80;;;5.30;;
70416;SDS011;57839;51.332;12.410;2023-01-04T04:29:54;6.70;;;4.35;;
70416;SDS011;57839;51.332;12.410;2023-01-04T04:32:20;11.73;;;4.90;;
70416;SDS011;57839;51.332;12.410;2023-01-04T04:34:46;7.85;;;5.00;;
70416;SDS011;57839;51.332;12.410;2023-01-04T04:37:11;9.90;;;4.95;;
70416;SDS011;57839;51.332;12.410;2023-01-04T04:39:37;7.57;;;4.70;;
70416;SDS011;57839;51.332;12.410;2023-01-04T04:42:03;7.10;;;4.22;;
70416;SDS011;57839;51.332;12.410;2023-01-04T04:44:28;6.40;;;4.45;;
70416;SDS011;57839;51.332;12.410;2023-01-04T04:46:54;5.80;;;3.85;;
70416;SDS011;57839;51.332;12.410;2023-01-04T04:49:21;5.95;;;4.30;;
70416;SDS011;57839;51.332;12.410;2023-01-04T04:51:47;6.68;;;4.32;;
70416;SDS011;57839;51.332;12.410;2023-01-04T04:54:16;6.00;;;4.18;;
70416;SDS011;57839;51.332;12.410;2023-01-04T04:56:44;5.57;;;4.07;;
70416;SDS011;57839;51.332;12.410;2023-01-04T04:59:10;8.73;;;3.78;;
70416;SDS011;57839;51.332;12.410;2023-01-04T05:01:35;6.03;;;4.10;;
70416;SDS011;57839;51.332;12.410;2023-01-04T05:04:01;5.00;;;3.72;;
70416;SDS011;57839;51.332;12.410;2023-01-04T05:06:26;6.47;;;3.90;;
70416;SDS011;57839;51.332;12.410;2023-01-04T05:08:52;5.53;;;4.18;;
70416;SDS011;57839;51.332;12.410;2023-01-04T05:11:18;6.90;;;4.13;;
70416;SDS011;57839;51.332;12.410;2023-01-04T05:14:03;4.55;;;3.35;;
70416;SDS011;57839;51.332;12.410;2023-01-04T05:16:29;5.55;;;3.53;;
70416;SDS011;57839;51.332;12.410;2023-01-04T05:18:54;6.63;;;3.58;;
70416;SDS011;57839;51.332;12.410;2023-01-04T05:21:20;5.10;;;3.75;;
70416;SDS011;57839;51.332;12.410;2023-01-04T05:23:45;6.68;;;3.55;;
70416;SDS011;57839;51.332;12.410;2023-01-04T05:26:11;6.38;;;4.47;;
70416;SDS011;57839;51.332;12.410;2023-01-04T05:28:37;5.47;;;4.32;;
70416;SDS011;57839;51.332;12.410;2023-01-04T05:31:02;5.95;;;4.15;;
70416;SDS011;57839;51.332;12.410;2023-01-04T05:33:29;5.75;;;4.30;;
70416;SDS011;57839;51.332;12.410;2023-01-04T05:35:56;5.88;;;3.58;;
70416;SDS011;57839;51.332;12.410;2023-01-04T05:38:23;6.22;;;4.13;;
70416;SDS011;57839;51.332;12.410;2023-01-04T05:40:50;6.15;;;4.25;;
70416;SDS011;57839;51.332;12.410;2023-01-04T05:43:17;7.45;;;4.00;;
70416;SDS011;57839;51.332;12.410;2023-01-04T05:45:48;5.93;;;3.85;;
70416;SDS011;57839;51.332;12.410;2023-01-04T05:48:15;5.97;;;4.10;;
70416;SDS011;57839;51.332;12.410;2023-01-04T05:50:41;6.25;;;4.07;;
70416;SDS011;57839;51.332;12.410;2023-01-04T05:53:07;7.00;;;3.80;;
70416;SDS011;57839;51.332;12.410;2023-01-04T05:55:33;6.60;;;4.30;;
70416;SDS011;57839;51.332;12.410;2023-01-04T05:57:58;5.00;;;4.00;;
70416;SDS011;57839;51.332;12.410;2023-01-04T06:00:24;6.53;;;4.03;;
70416;SDS011;57839;51.332;12.410;2023-01-04T06:02:50;6.10;;;4.28;;
70416;SDS011;57839;51.332;12.410;2023-01-04T06:05:19;7.03;;;4.40;;
70416;SDS011;57839;51.332;12.410;2023-01-04T06:07:46;5.55;;;4.30;;
70416;SDS011;57839;51.332;12.410;2023-01-04T06:10:12;6.65;;;4.47;;
70416;SDS011;57839;51.332;12.410;2023-01-04T06:12:38;10.10;;;4.60;;
70416;SDS011;57839;51.332;12.410;2023-01-04T06:15:04;6.88;;;4.32;;
70416;SDS011;57839;51.332;12.410;2023-01-04T06:17:31;6.38;;;4.25;;
70416;SDS011;57839;51.332;12.410;2023-01-04T06:19:57;9.75;;;4.45;;
70416;SDS011;57839;51.332;12.410;2023-01-04T06:22:23;5.57;;;4.70;;
70416;SDS011;57839;51.332;12.410;2023-01-04T06:24:51;6.03;;;4.40;;
70416;SDS011;57839;51.332;12.410;2023-01-04T06:27:17;6.43;;;4.65;;
70416;SDS011;57839;51.332;12.410;2023-01-04T06:29:42;8.45;;;4.38;;
70416;SDS011;57839;51.332;12.410;2023-01-04T06:32:08;6.45;;;4.93;;
70416;SDS011;57839;51.332;12.410;2023-01-04T06:34:34;7.63;;;5.20;;
70416;SDS011;57839;51.332;12.410;2023-01-04T06:36:59;7.28;;;5.20;;
70416;SDS011;57839;51.332;12.410;2023-01-04T06:39:25;6.45;;;5.32;;
70416;SDS011;57839;51.332;12.410;2023-01-04T06:41:51;7.43;;;5.50;;
70416;SDS011;57839;51.332;12.410;2023-01-04T06:44:16;9.70;;;5.65;;
70416;SDS011;57839;51.332;12.410;2023-01-04T06:46:42;9.48;;;6.20;;
70416;SDS011;57839;51.332;12.410;2023-01-04T06:49:07;9.05;;;6.10;;
70416;SDS011;57839;51.332;12.410;2023-01-04T06:51:33;7.75;;;5.68;;
70416;SDS011;57839;51.332;12.410;2023-01-04T06:53:59;9.98;;;6.47;;
70416;SDS011;57839;51.332;12.410;2023-01-04T06:56:25;10.05;;;6.78;;
70416;SDS011;57839;51.332;12.410;2023-01-04T06:58:50;9.77;;;6.90;;
70416;SDS011;57839;51.332;12.410;2023-01-04T07:01:16;9.50;;;6.35;;
70416;SDS011;57839;51.332;12.410;2023-01-04T07:03:42;10.00;;;6.80;;
70416;SDS011;57839;51.332;12.410;2023-01-04T07:06:07;9.70;;;6.60;;
70416;SDS011;57839;51.332;12.410;2023-01-04T07:08:36;11.88;;;7.20;;
70416;SDS011;57839;51.332;12.410;2023-01-04T07:11:01;10.95;;;6.40;;
70416;SDS011;57839;51.332;12.410;2023-01-04T07:13:27;10.35;;;5.97;;
70416;SDS011;57839;51.332;12.410;2023-01-04T07:15:53;9.50;;;6.53;;
70416;SDS011;57839;51.332;12.410;2023-01-04T07:18:19;10.55;;;7.03;;
70416;SDS011;57839;51.332;12.410;2023-01-04T07:20:44;9.57;;;6.60;;
70416;SDS011;57839;51.332;12.410;2023-01-04T07:23:10;10.90;;;6.47;;
70416;SDS011;57839;51.332;12.410;2023-01-04T07:25:35;9.30;;;6.47;;
70416;SDS011;57839;51.332;12.410;2023-01-04T07:28:01;9.10;;;6.00;;
70416;SDS011;57839;51.332;12.410;2023-01-04T07:30:27;8.55;;;5.60;;
70416;SDS011;57839;51.332;12.410;2023-01-04T07:32:53;9.00;;;6.70;;
70416;SDS011;57839;51.332;12.410;2023-01-04T07:35:19;7.45;;;5.85;;
70416;SDS011;57839;51.332;12.410;2023-01-04T07:37:45;7.05;;;5.35;;
70416;SDS011;57839;51.332;12.410;2023-01-04T07:40:11;7.25;;;5.55;;
70416;SDS011;57839;51.332;12.410;2023-01-04T07:42:37;8.75;;;5.45;;
70416;SDS011;57839;51.332;12.410;2023-01-04T07:45:03;7.25;;;5.07;;
70416;SDS011;57839;51.332;12.410;2023-01-04T07:47:30;8.57;;;5.50;;
70416;SDS011;57839;51.332;12.410;2023-01-04T07:49:56;8.20;;;5.40;;
70416;SDS011;57839;51.332;12.410;2023-01-04T07:52:22;6.18;;;4.68;;
70416;SDS011;57839;51.332;12.410;2023-01-04T07:54:47;6.38;;;4.50;;
70416;SDS011;57839;51.332;12.410;2023-01-04T07:57:13;6.25;;;4.55;;
70416;SDS011;57839;51.332;12.410;2023-01-04T07:59:39;5.95;;;4.50;;
70416;SDS011;57839;51.332;12.410;2023-01-04T08:02:04;7.88;;;4.80;;
70416;SDS011;57839;51.332;12.410;2023-01-04T08:04:30;9.05;;;4.50;;
70416;SDS011;57839;51.332;12.410;2023-01-04T08:06:56;8.98;;;4.22;;
70416;SDS011;57839;51.332;12.410;2023-01-04T08:09:21;8.38;;;4.53;;
70416;SDS011;57839;51.332;12.410;2023-01-04T08:11:47;9.48;;;4.28;;
70416;SDS011;57839;51.332;12.410;2023-01-04T08:14:12;5.75;;;4.03;;
70416;SDS011;57839;51.332;12.410;2023-01-04T08:16:39;6.03;;;3.58;;
70416;SDS011;57839;51.332;12.410;2023-01-04T08:19:06;6.43;;;4.13;;
70416;SDS011;57839;51.332;12.410;2023-01-04T08:24:05;5.03;;;3.85;;
70416;SDS011;57839;51.332;12.410;2023-01-04T08:26:31;10.48;;;4.38;;
70416;SDS011;57839;51.332;12.410;2023-01-04T08:28:57;4.90;;;3.70;;
70416;SDS011;57839;51.332;12.410;2023-01-04T08:31:25;5.88;;;4.20;;
70416;SDS011;57839;51.332;12.410;2023-01-04T08:33:53;6.45;;;3.95;;
70416;SDS011;57839;51.332;12.410;2023-01-04T08:36:20;5.00;;;4.03;;
70416;SDS011;57839;51.332;12.410;2023-01-04T08:38:50;4.78;;;3.33;;
70416;SDS011;57839;51.332;12.410;2023-01-04T08:41:19;6.22;;;3.97;;
70416;SDS011;57839;51.332;12.410;2023-01-04T08:43:44;6.20;;;4.07;;
70416;SDS011;57839;51.332;12.410;2023-01-04T08:46:10;5.20;;;3.65;;
70416;SDS011;57839;51.332;12.410;2023-01-04T08:48:37;4.53;;;3.65;;
70416;SDS011;57839;51.332;12.410;2023-01-04T08:51:06;5.55;;;4.10;;
70416;SDS011;57839;51.332;12.410;2023-01-04T08:53:34;7.13;;;3.47;;
70416;SDS011;57839;51.332;12.410;2023-01-04T08:55:59;5.45;;;3.78;;
70416;SDS011;57839;51.332;12.410;2023-01-04T08:58:27;5.53;;;3.85;;
70416;SDS011;57839;51.332;12.410;2023-01-04T09:00:57;4.15;;;3.35;;
70416;SDS011;57839;51.332;12.410;2023-01-04T09:03:24;6.72;;;3.38;;
70416;SDS011;57839;51.332;12.410;2023-01-04T09:05:50;4.20;;;3.15;;
70416;SDS011;57839;51.332;12.410;2023-01-04T09:08:15;4.68;;;2.97;;
70416;SDS011;57839;51.332;12.410;2023-01-04T09:10:41;4.32;;;3.13;;
70416;SDS011;57839;51.332;12.410;2023-01-04T09:13:07;6.45;;;3.15;;
70416;SDS011;57839;51.332;12.410;2023-01-04T09:15:32;3.88;;;3.03;;
70416;SDS011;57839;51.332;12.410;2023-01-04T09:17:58;4.13;;;3.10;;
70416;SDS011;57839;51.332;12.410;2023-01-04T09:20:24;4.95;;;3.10;;
70416;SDS011;57839;51.332;12.410;2023-01-04T09:22:49;4.97;;;3.13;;
70416;SDS011;57839;51.332;12.410;2023-01-04T09:25:15;3.67;;;2.95;;
70416;SDS011;57839;51.332;12.410;2023-01-04T09:27:41;3.70;;;2.42;;
70416;SDS011;57839;51.332;12.410;2023-01-04T09:30:07;3.60;;;2.50;;
70416;SDS011;57839;51.332;12.410;2023-01-04T09:32:33;3.85;;;2.47;;
70416;SDS011;57839;51.332;12.410;2023-01-04T09:34:59;2.85;;;2.45;;
70416;SDS011;57839;51.332;12.410;2023-01-04T09:37:24;3.53;;;2.20;;
70416;SDS011;57839;51.332;12.410;2023-01-04T09:39:50;2.85;;;2.15;;
70416;SDS011;57839;51.332;12.410;2023-01-04T09:42:25;3.42;;;2.00;;
70416;SDS011;57839;51.332;12.410;2023-01-04T09:44:53;2.25;;;1.98;;
70416;SDS011;57839;51.332;12.410;2023-01-04T09:47:29;3.20;;;2.20;;
70416;SDS011;57839;51.332;12.410;2023-01-04T09:50:21;3.80;;;2.20;;
70416;SDS011;57839;51.332;12.410;2023-01-04T09:55:42;3.10;;;1.80;;
70416;SDS011;57839;51.332;12.410;2023-01-04T10:01:02;1.83;;;1.70;;
70416;SDS011;57839;51.332;12.410;2023-01-04T10:03:35;2.72;;;1.85;;
70416;SDS011;57839;51.332;12.410;2023-01-04T10:06:03;2.22;;;1.90;;
70416;SDS011;57839;51.332;12.410;2023-01-04T10:08:30;2.78;;;1.63;;
70416;SDS011;57839;51.332;12.410;2023-01-04T10:26:46;2.88;;;1.85;;
70416;SDS011;57839;51.332;12.410;2023-01-04T10:32:30;2.47;;;1.83;;
70416;SDS011;57839;51.332;12.410;2023-01-04T10:35:01;5.50;;;2.20;;
70416;SDS011;57839;51.332;12.410;2023-01-04T10:37:29;3.30;;;1.65;;
70416;SDS011;57839;51.332;12.410;2023-01-04T10:39:57;2.95;;;1.70;;
70416;SDS011;57839;51.332;12.410;2023-01-04T10:42:31;2.38;;;1.70;;
70416;SDS011;57839;51.332;12.410;2023-01-04T10:45:19;2.13;;;1.93;;
70416;SDS011;57839;51.332;12.410;2023-01-04T10:47:52;2.40;;;1.80;;
70416;SDS011;57839;51.332;12.410;2023-01-04T10:50:29;3.65;;;1.83;;
70416;SDS011;57839;51.332;12.410;2023-01-04T10:53:24;3.08;;;1.63;;
70416;SDS011;57839;51.332;12.410;2023-01-04T10:56:01;1.88;;;1.60;;
70416;SDS011;57839;51.332;12.410;2023-01-04T11:01:13;3.22;;;1.70;;
70416;SDS011;57839;51.332;12.410;2023-01-04T11:03:52;2.67;;;1.80;;
70416;SDS011;57839;51.332;12.410;2023-01-04T11:06:26;2.60;;;1.95;;
70416;SDS011;57839;51.332;12.410;2023-01-04T11:11:50;1.65;;;1.55;;
70416;SDS011;57839;51.332;12.410;2023-01-04T11:14:15;1.95;;;1.40;;
70416;SDS011;57839;51.332;12.410;2023-01-04T11:16:47;1.88;;;1.70;;
70416;SDS011;57839;51.332;12.410;2023-01-04T11:19:14;1.83;;;1.60;;
70416;SDS011;57839;51.332;12.410;2023-01-04T11:21:45;1.88;;;1.65;;
70416;SDS011;57839;51.332;12.410;2023-01-04T11:24:23;1.40;;;1.30;;
70416;SDS011;57839;51.332;12.410;2023-01-04T11:26:50;3.13;;;1.80;;
70416;SDS011;57839;51.332;12.410;2023-01-04T11:31:55;2.53;;;1.63;;
70416;SDS011;57839;51.332;12.410;2023-01-04T11:34:55;2.30;;;1.75;;
70416;SDS011;57839;51.332;12.410;2023-01-04T11:37:23;2.00;;;1.60;;
70416;SDS011;57839;51.332;12.410;2023-01-04T11:39:50;5.10;;;2.17;;
70416;SDS011;57839;51.332;12.410;2023-01-04T11:42:19;2.70;;;1.90;;
70416;SDS011;57839;51.332;12.410;2023-01-04T11:44:56;2.47;;;2.10;;
70416;SDS011;57839;51.332;12.410;2023-01-04T11:47:23;2.20;;;1.98;;
70416;SDS011;57839;51.332;12.410;2023-01-04T11:49:49;3.65;;;1.98;;
70416;SDS011;57839;51.332;12.410;2023-01-04T11:52:57;3.17;;;2.30;;
70416;SDS011;57839;51.332;12.410;2023-01-04T11:55:25;2.65;;;2.20;;
70416;SDS011;57839;51.332;12.410;2023-01-04T11:58:04;3.15;;;2.33;;
70416;SDS011;57839;51.332;12.410;2023-01-04T12:00:31;3.80;;;2.42;;
70416;SDS011;57839;51.332;12.410;2023-01-04T12:03:12;2.40;;;2.03;;
70416;SDS011;57839;51.332;12.410;2023-01-04T12:05:38;3.47;;;2.20;;
70416;SDS011;57839;51.332;12.410;2023-01-04T12:08:04;3.70;;;2.25;;
70416;SDS011;57839;51.332;12.410;2023-01-04T12:10:29;2.95;;;1.98;;
70416;SDS011;57839;51.332;12.410;2023-01-04T12:12:56;4.50;;;2.03;;
70416;SDS011;57839;51.332;12.410;2023-01-04T12:15:30;2.00;;;1.80;;
70416;SDS011;57839;51.332;12.410;2023-01-04T12:18:05;2.20;;;2.00;;
70416;SDS011;57839;51.332;12.410;2023-01-04T12:20:35;2.35;;;2.15;;
70416;SDS011;57839;51.332;12.410;2023-01-04T12:23:00;2.17;;;1.98;;
70416;SDS011;57839;51.332;12.410;2023-01-04T12:25:32;2.72;;;1.83;;
70416;SDS011;57839;51.332;12.410;2023-01-04T12:28:03;2.53;;;2.15;;
70416;SDS011;57839;51.332;12.410;2023-01-04T12:33:35;2.28;;;1.60;;
70416;SDS011;57839;51.332;12.410;2023-01-04T12:35:58;1.85;;;1.73;;
70416;SDS011;57839;51.332;12.410;2023-01-04T12:43:42;2.95;;;1.80;;
70416;SDS011;57839;51.332;12.410;2023-01-04T13:02:23;2.10;;;1.73;;
70416;SDS011;57839;51.332;12.410;2023-01-04T13:04:52;1.55;;;1.42;;
70416;SDS011;57839;51.332;12.410;2023-01-04T13:07:20;2.58;;;1.52;;
70416;SDS011;57839;51.332;12.410;2023-01-04T13:09:57;1.75;;;1.40;;
70416;SDS011;57839;51.332;12.410;2023-01-04T13:15:07;1.77;;;1.60;;
70416;SDS011;57839;51.332;12.410;2023-01-04T13:18:28;1.50;;;1.40;;
70416;SDS011;57839;51.332;12.410;2023-01-04T13:26:46;1.60;;;1.50;;
70416;SDS011;57839;51.332;12.410;2023-01-04T13:34:16;1.55;;;1.45;;
70416;SDS011;57839;51.332;12.410;2023-01-04T13:39:26;1.65;;;1.40;;
70416;SDS011;57839;51.332;12.410;2023-01-04T13:41:52;1.70;;;1.42;;
70416;SDS011;57839;51.332;12.410;2023-01-04T13:47:23;3.20;;;1.63;;
70416;SDS011;57839;51.332;12.410;2023-01-04T13:49:49;3.42;;;1.50;;
70416;SDS011;57839;51.332;12.410;2023-01-04T13:52:21;3.40;;;1.52;;
70416;SDS011;57839;51.332;12.410;2023-01-04T13:54:50;1.70;;;1.40;;
70416;SDS011;57839;51.332;12.410;2023-01-04T13:57:19;1.73;;;1.17;;
70416;SDS011;57839;51.332;12.410;2023-01-04T13:59:49;1.67;;;1.48;;
70416;SDS011;57839;51.332;12.410;2023-01-04T14:02:16;2.35;;;1.30;;
70416;SDS011;57839;51.332;12.410;2023-01-04T14:04:44;2.03;;;1.40;;
70416;SDS011;57839;51.332;12.410;2023-01-04T14:07:09;1.77;;;1.38;;
70416;SDS011;57839;51.332;12.410;2023-01-04T14:09:37;1.38;;;1.27;;
70416;SDS011;57839;51.332;12.410;2023-01-04T14:12:11;1.20;;;1.10;;
70416;SDS011;57839;51.332;12.410;2023-01-04T14:14:49;2.60;;;1.50;;
70416;SDS011;57839;51.332;12.410;2023-01-04T14:20:03;3.00;;;1.40;;
70416;SDS011;57839;51.332;12.410;2023-01-04T14:22:34;1.60;;;1.50;;
70416;SDS011;57839;51.332;12.410;2023-01-04T14:38:39;2.05;;;1.40;;
70416;SDS011;57839;51.332;12.410;2023-01-04T14:41:18;2.72;;;1.20;;
70416;SDS011;57839;51.332;12.410;2023-01-04T14:46:24;1.25;;;1.15;;
70416;SDS011;57839;51.332;12.410;2023-01-04T14:48:50;2.25;;;1.25;;
70416;SDS011;57839;51.332;12.410;2023-01-04T14:51:16;1.00;;;0.90;;
70416;SDS011;57839;51.332;12.410;2023-01-04T14:53:44;2.72;;;1.30;;
70416;SDS011;57839;51.332;12.410;2023-01-04T14:56:13;1.35;;;1.13;;
70416;SDS011;57839;51.332;12.410;2023-01-04T14:58:40;2.10;;;1.05;;
70416;SDS011;57839;51.332;12.410;2023-01-04T15:01:06;1.65;;;1.50;;
70416;SDS011;57839;51.332;12.410;2023-01-04T15:03:32;1.40;;;1.20;;
70416;SDS011;57839;51.332;12.410;2023-01-04T15:05:58;2.53;;;1.27;;
70416;SDS011;57839;51.332;12.410;2023-01-04T15:08:23;1.70;;;1.35;;
70416;SDS011;57839;51.332;12.410;2023-01-04T15:10:48;1.40;;;1.30;;
70416;SDS011;57839;51.332;12.410;2023-01-04T15:13:14;1.20;;;1.10;;
70416;SDS011;57839;51.332;12.410;2023-01-04T15:15:40;1.20;;;1.10;;
70416;SDS011;57839;51.332;12.410;2023-01-04T15:18:06;1.98;;;1.48;;
70416;SDS011;57839;51.332;12.410;2023-01-04T15:20:32;1.63;;;0.95;;
70416;SDS011;57839;51.332;12.410;2023-01-04T15:22:57;2.53;;;1.45;;
70416;SDS011;57839;51.332;12.410;2023-01-04T15:25:23;1.40;;;1.30;;
70416;SDS011;57839;51.332;12.410;2023-01-04T15:27:52;1.27;;;1.17;;
70416;SDS011;57839;51.332;12.410;2023-01-04T15:30:18;1.73;;;1.20;;
70416;SDS011;57839;51.332;12.410;2023-01-04T15:32:44;2.03;;;1.20;;
70416;SDS011;57839;51.332;12.410;2023-01-04T15:35:09;1.15;;;1.10;;
70416;SDS011;57839;51.332;12.410;2023-01-04T15:37:35;1.35;;;1.20;;
70416;SDS011;57839;51.332;12.410;2023-01-04T15:40:00;1.77;;;1.48;;
70416;SDS011;57839;51.332;12.410;2023-01-04T15:42:26;1.50;;;1.40;;
70416;SDS011;57839;51.332;12.410;2023-01-04T15:45:10;1.67;;;1.40;;
70416;SDS011;57839;51.332;12.410;2023-01-04T15:47:35;1.30;;;1.20;;
70416;SDS011;57839;51.332;12.410;2023-01-04T15:50:01;1.05;;;1.00;;
70416;SDS011;57839;51.332;12.410;2023-01-04T15:52:27;1.30;;;1.20;;
70416;SDS011;57839;51.332;12.410;2023-01-04T15:54:52;1.88;;;1.67;;
70416;SDS011;57839;51.332;12.410;2023-01-04T15:57:18;1.17;;;1.10;;
70416;SDS011;57839;51.332;12.410;2023-01-04T15:59:45;1.20;;;1.10;;
70416;SDS011;57839;51.332;12.410;2023-01-04T16:02:11;3.22;;;1.60;;
70416;SDS011;57839;51.332;12.410;2023-01-04T16:04:37;1.38;;;1.27;;
70416;SDS011;57839;51.332;12.410;2023-01-04T16:07:02;2.45;;;1.40;;
70416;SDS011;57839;51.332;12.410;2023-01-04T16:09:28;1.35;;;1.20;;
70416;SDS011;57839;51.332;12.410;2023-01-04T16:11:53;1.23;;;1.13;;
70416;SDS011;57839;51.332;12.410;2023-01-04T16:14:37;1.50;;;1.40;;
70416;SDS011;57839;51.332;12.410;2023-01-04T16:17:03;1.83;;;1.52;;
70416;SDS011;57839;51.332;12.410;2023-01-04T16:19:28;1.80;;;1.35;;
70416;SDS011;57839;51.332;12.410;2023-01-04T16:21:56;1.70;;;1.42;;
70416;SDS011;57839;51.332;12.410;2023-01-04T16:24:22;2.40;;;1.55;;
70416;SDS011;57839;51.332;12.410;2023-01-04T16:26:48;1.52;;;1.38;;
70416;SDS011;57839;51.332;12.410;2023-01-04T16:29:13;2.13;;;1.27;;
70416;SDS011;57839;51.332;12.410;2023-01-04T16:31:39;4.05;;;1.98;;
70416;SDS011;57839;51.332;12.410;2023-01-04T16:34:08;1.30;;;1.10;;
70416;SDS011;57839;51.332;12.410;2023-01-04T16:36:36;1.33;;;1.20;;
70416;SDS011;57839;51.332;12.410;2023-01-04T16:39:01;2.75;;;1.30;;
70416;SDS011;57839;51.332;12.410;2023-01-04T16:41:27;1.35;;;1.23;;
70416;SDS011;57839;51.332;12.410;2023-01-04T16:43:53;1.67;;;1.20;;
70416;SDS011;57839;51.332;12.410;2023-01-04T16:46:21;1.00;;;1.00;;
70416;SDS011;57839;51.332;12.410;2023-01-04T16:48:49;1.25;;;1.15;;
70416;SDS011;57839;51.332;12.410;2023-01-04T16:51:16;2.33;;;1.25;;